sensor_id;sensor_type;location;lat;lon;timestamp;pressure;altitude;pressure_sealevel;temperature;humidity
26865;BME280;40618;51.166;10.322;2023-06-22T00:00:53;97734.66;;;19.69;64.41
26865;BME280;40618;51.166;10.322;2023-06-22T00:03:20;97735.97;;;19.76;64.45
26865;BME280;40618;51.166;10.322;2023-06-22T00:05:48;97728.41;;;19.86;64.33
26865;BME280;40618;51.166;10.322;2023-06-22T00:08:14;97734.13;;;19.93;64.58
26865;BME280;40618;51.166;10.322;2023-06-22T00:10:41;97726.03;;;19.82;64.10
26865;BME280;40618;51.166;10.322;2023-06-22T00:13:08;97729.53;;;19.68;64.34
26865;BME280;40618;51.166;10.322;2023-06-22T00:15:35;97720.63;;;19.56;64.43
26865;BME280;40618;51.166;10.322;2023-06-22T00:18:02;97727.56;;;19.57;64.76
26865;BME280;40618;51.166;10.322;2023-06-22T00:20:28;97739.56;;;19.61;64.71
26865;BME280;40618;51.166;10.322;2023-06-22T00:22:55;97747.19;;;19.66;64.79
26865;BME280;40618;51.166;10.322;2023-06-22T00:25:21;97747.53;;;19.74;64.49
26865;BME280;40618;51.166;10.322;2023-06-22T00:27:47;97748.00;;;19.66;64.48
26865;BME280;40618;51.166;10.322;2023-06-22T00:30:15;97744.81;;;19.61;64.66
26865;BME280;40618;51.166;10.322;2023-06-22T00:32:42;97751.09;;;19.58;64.84
26865;BME280;40618;51.166;10.322;2023-06-22T00:35:08;97745.38;;;19.66;64.96
26865;BME280;40618;51.166;10.322;2023-06-22T00:37:35;97734.31;;;19.61;64.65
26865;BME280;40618;51.166;10.322;2023-06-22T00:40:02;97741.00;;;19.52;64.56
26865;BME280;40618;51.166;10.322;2023-06-22T00:42:29;97731.88;;;19.43;64.83
26865;BME280;40618;51.166;10.322;2023-06-22T00:44:55;97736.19;;;19.44;64.98
26865;BME280;40618;51.166;10.322;2023-06-22T00:47:21;97732.84;;;19.42;64.89
26865;BME280;40618;51.166;10.322;2023-06-22T00:49:49;97727.03;;;19.37;64.82
26865;BME280;40618;51.166;10.322;2023-06-22T00:52:19;97720.63;;;19.27;64.90
26865;BME280;40618;51.166;10.322;2023-06-22T00:54:54;97710.63;;;19.19;65.02
26865;BME280;40618;51.166;10.322;2023-06-22T00:57:22;97710.16;;;19.13;65.11
26865;BME280;40618;51.166;10.322;2023-06-22T00:59:53;97702.19;;;19.14;65.47
26865;BME280;40618;51.166;10.322;2023-06-22T01:02:19;97699.53;;;19.28;65.44
26865;BME280;40618;51.166;10.322;2023-06-22T01:04:45;97698.88;;;19.39;65.43
26865;BME280;40618;51.166;10.322;2023-06-22T01:07:39;97688.38;;;19.39;65.34
26865;BME280;40618;51.166;10.322;2023-06-22T01:10:21;97691.66;;;19.28;65.32
26865;BME280;40618;51.166;10.322;2023-06-22T01:13:04;97691.22;;;19.22;65.45
26865;BME280;40618;51.166;10.322;2023-06-22T01:15:53;97688.88;;;19.17;65.43
26865;BME280;40618;51.166;10.322;2023-06-22T01:18:29;97675.00;;;19.15;65.61
26865;BME280;40618;51.166;10.322;2023-06-22T01:20:57;97676.66;;;19.16;65.52
26865;BME280;40618;51.166;10.322;2023-06-22T01:23:36;97667.97;;;19.16;65.64
26865;BME280;40618;51.166;10.322;2023-06-22T01:26:39;97672.00;;;19.07;65.75
26865;BME280;40618;51.166;10.322;2023-06-22T01:29:11;97674.25;;;18.99;65.81
26865;BME280;40618;51.166;10.322;2023-06-22T01:31:40;97673.88;;;18.90;65.72
26865;BME280;40618;51.166;10.322;2023-06-22T01:34:09;97658.38;;;18.86;65.95
26865;BME280;40618;51.166;10.322;2023-06-22T01:36:38;97651.03;;;18.76;65.99
26865;BME280;40618;51.166;10.322;2023-06-22T01:39:05;97641.31;;;18.78;66.13
26865;BME280;40618;51.166;10.322;2023-06-22T01:41:35;97641.78;;;18.85;66.52
26865;BME280;40618;51.166;10.322;2023-06-22T01:44:05;97644.16;;;18.90;66.01
26865;BME280;40618;51.166;10.322;2023-06-22T01:46:35;97641.63;;;18.88;66.29
26865;BME280;40618;51.166;10.322;2023-06-22T01:49:02;97631.50;;;18.82;66.47
26865;BME280;40618;51.166;10.322;2023-06-22T01:51:29;97631.66;;;18.79;66.48
26865;BME280;40618;51.166;10.322;2023-06-22T01:53:55;97632.59;;;18.78;66.48
26865;BME280;40618;51.166;10.322;2023-06-22T01:56:21;97632.88;;;18.73;66.62
26865;BME280;40618;51.166;10.322;2023-06-22T01:59:12;97626.97;;;18.70;66.72
26865;BME280;40618;51.166;10.322;2023-06-22T02:01:44;97633.06;;;18.70;66.84
26865;BME280;40618;51.166;10.322;2023-06-22T02:04:21;97630.16;;;18.75;66.85
26865;BME280;40618;51.166;10.322;2023-06-22T02:06:55;97630.16;;;18.75;66.99
26865;BME280;40618;51.166;10.322;2023-06-22T02:09:23;97638.94;;;18.74;67.01
26865;BME280;40618;51.166;10.322;2023-06-22T02:11:54;97648.63;;;18.73;67.03
26865;BME280;40618;51.166;10.322;2023-06-22T02:14:22;97653.75;;;18.75;67.11
26865;BME280;40618;51.166;10.322;2023-06-22T02:16:51;97658.81;;;18.78;67.19
26865;BME280;40618;51.166;10.322;2023-06-22T02:19:17;97660.81;;;18.74;67.04
26865;BME280;40618;51.166;10.322;2023-06-22T02:21:47;97673.81;;;18.76;67.38
26865;BME280;40618;51.166;10.322;2023-06-22T02:24:12;97679.06;;;18.76;67.41
26865;BME280;40618;51.166;10.322;2023-06-22T02:26:38;97698.66;;;18.70;67.47
26865;BME280;40618;51.166;10.322;2023-06-22T02:29:07;97695.09;;;18.71;67.83
26865;BME280;40618;51.166;10.322;2023-06-22T02:31:33;97712.97;;;18.79;67.72
26865;BME280;40618;51.166;10.322;2023-06-22T02:33:59;97722.19;;;18.86;67.57
26865;BME280;40618;51.166;10.322;2023-06-22T02:36:25;97727.84;;;18.94;67.55
26865;BME280;40618;51.166;10.322;2023-06-22T02:38:53;97746.97;;;18.97;67.53
26865;BME280;40618;51.166;10.322;2023-06-22T02:41:21;97750.25;;;19.00;67.46
26865;BME280;40618;51.166;10.322;2023-06-22T02:43:47;97763.19;;;19.03;67.47
26865;BME280;40618;51.166;10.322;2023-06-22T02:46:13;97761.41;;;19.04;67.55
26865;BME280;40618;51.166;10.322;2023-06-22T02:48:42;97764.59;;;19.09;67.73
26865;BME280;40618;51.166;10.322;2023-06-22T02:51:08;97766.38;;;19.08;67.69
26865;BME280;40618;51.166;10.322;2023-06-22T02:53:34;97767.50;;;19.04;67.65
26865;BME280;40618;51.166;10.322;2023-06-22T02:56:03;97772.56;;;19.07;67.73
26865;BME280;40618;51.166;10.322;2023-06-22T02:58:32;97775.00;;;19.10;67.73
26865;BME280;40618;51.166;10.322;2023-06-22T03:01:05;97780.00;;;19.15;67.92
26865;BME280;40618;51.166;10.322;2023-06-22T03:03:31;97784.22;;;19.18;67.67
26865;BME280;40618;51.166;10.322;2023-06-22T03:05:57;97786.91;;;19.16;67.82
26865;BME280;40618;51.166;10.322;2023-06-22T03:08:22;97783.16;;;19.20;67.86
26865;BME280;40618;51.166;10.322;2023-06-22T03:10:48;97783.00;;;19.23;68.03
26865;BME280;40618;51.166;10.322;2023-06-22T03:13:13;97788.78;;;19.28;68.07
26865;BME280;40618;51.166;10.322;2023-06-22T03:15:39;97784.03;;;19.35;68.02
26865;BME280;40618;51.166;10.322;2023-06-22T03:18:04;97790.25;;;19.34;67.99
26865;BME280;40618;51.166;10.322;2023-06-22T03:20:30;97788.63;;;19.32;68.10
26865;BME280;40618;51.166;10.322;2023-06-22T03:22:58;97778.03;;;19.33;68.16
26865;BME280;40618;51.166;10.322;2023-06-22T03:25:24;97780.66;;;19.33;68.17
26865;BME280;40618;51.166;10.322;2023-06-22T03:27:50;97777.38;;;19.30;68.27
26865;BME280;40618;51.166;10.322;2023-06-22T03:30:15;97775.66;;;19.28;68.53
26865;BME280;40618;51.166;10.322;2023-06-22T03:32:41;97772.88;;;19.32;68.46
26865;BME280;40618;51.166;10.322;2023-06-22T03:35:08;97753.53;;;19.33;68.48
26865;BME280;40618;51.166;10.322;2023-06-22T03:37:34;97748.69;;;19.26;68.49
26865;BME280;40618;51.166;10.322;2023-06-22T03:40:00;97724.69;;;19.18;68.70
26865;BME280;40618;51.166;10.322;2023-06-22T03:42:26;97709.59;;;19.07;68.81
26865;BME280;40618;51.166;10.322;2023-06-22T03:44:51;97705.28;;;18.92;68.81
26865;BME280;40618;51.166;10.322;2023-06-22T03:47:17;97709.63;;;18.77;69.08
26865;BME280;40618;51.166;10.322;2023-06-22T03:49:43;97707.00;;;18.77;69.31
26865;BME280;40618;51.166;10.322;2023-06-22T03:52:09;97713.16;;;18.76;69.39
26865;BME280;40618;51.166;10.322;2023-06-22T03:54:36;97702.38;;;18.81;69.38
26865;BME280;40618;51.166;10.322;2023-06-22T03:57:02;97689.84;;;18.86;69.44
26865;BME280;40618;51.166;10.322;2023-06-22T03:59:27;97686.41;;;18.85;69.35
26865;BME280;40618;51.166;10.322;2023-06-22T04:01:53;97671.09;;;18.77;69.24
26865;BME280;40618;51.166;10.322;2023-06-22T04:04:19;97675.38;;;18.64;69.51
26865;BME280;40618;51.166;10.322;2023-06-22T04:06:45;97673.88;;;18.60;69.76
26865;BME280;40618;51.166;10.322;2023-06-22T04:09:11;97669.00;;;18.54;69.85
26865;BME280;40618;51.166;10.322;2023-06-22T04:11:36;97672.84;;;18.48;69.97
26865;BME280;40618;51.166;10.322;2023-06-22T04:14:02;97666.00;;;18.46;69.96
26865;BME280;40618;51.166;10.322;2023-06-22T04:16:28;97665.13;;;18.45;70.09
26865;BME280;40618;51.166;10.322;2023-06-22T04:18:53;97667.75;;;18.45;70.20
26865;BME280;40618;51.166;10.322;2023-06-22T04:21:19;97663.28;;;18.47;70.11
26865;BME280;40618;51.166;10.322;2023-06-22T04:23:45;97661.59;;;18.46;70.36
26865;BME280;40618;51.166;10.322;2023-06-22T04:26:12;97659.91;;;18.45;70.32
26865;BME280;40618;51.166;10.322;2023-06-22T04:28:39;97656.53;;;18.43;70.23
26865;BME280;40618;51.166;10.322;2023-06-22T04:31:04;97663.63;;;18.41;70.49
26865;BME280;40618;51.166;10.322;2023-06-22T04:33:31;97654.84;;;18.42;70.50
26865;BME280;40618;51.166;10.322;2023-06-22T04:35:58;97650.44;;;18.42;70.64
26865;BME280;40618;51.166;10.322;2023-06-22T04:38:26;97652.22;;;18.42;70.78
26865;BME280;40618;51.166;10.322;2023-06-22T04:40:52;97657.38;;;18.43;70.75
26865;BME280;40618;51.166;10.322;2023-06-22T04:43:18;97654.66;;;18.45;70.73
26865;BME280;40618;51.166;10.322;2023-06-22T04:45:44;97656.25;;;18.48;70.85
26865;BME280;40618;51.166;10.322;2023-06-22T04:48:10;97658.63;;;18.52;70.84
26865;BME280;40618;51.166;10.322;2023-06-22T04:50:41;97660.22;;;18.55;70.91
26865;BME280;40618;51.166;10.322;2023-06-22T04:53:07;97662.56;;;18.59;70.97
26865;BME280;40618;51.166;10.322;2023-06-22T04:55:35;97668.53;;;18.61;70.95
26865;BME280;40618;51.166;10.322;2023-06-22T04:58:03;97669.31;;;18.64;71.18
26865;BME280;40618;51.166;10.322;2023-06-22T05:00:30;97663.03;;;18.66;71.16
26865;BME280;40618;51.166;10.322;2023-06-22T05:02:56;97664.53;;;18.70;71.07
26865;BME280;40618;51.166;10.322;2023-06-22T05:05:23;97665.84;;;18.77;71.06
26865;BME280;40618;51.166;10.322;2023-06-22T05:07:51;97661.84;;;18.86;71.26
26865;BME280;40618;51.166;10.322;2023-06-22T05:10:25;97653.97;;;18.86;71.06
26865;BME280;40618;51.166;10.322;2023-06-22T05:12:51;97658.56;;;18.83;71.26
26865;BME280;40618;51.166;10.322;2023-06-22T05:15:16;97652.47;;;18.82;71.22
26865;BME280;40618;51.166;10.322;2023-06-22T05:17:44;97650.41;;;18.87;71.28
26865;BME280;40618;51.166;10.322;2023-06-22T05:20:11;97646.69;;;18.91;71.16
26865;BME280;40618;51.166;10.322;2023-06-22T05:22:40;97635.16;;;18.94;71.33
26865;BME280;40618;51.166;10.322;2023-06-22T05:25:09;97637.53;;;18.99;71.70
26865;BME280;40618;51.166;10.322;2023-06-22T05:27:36;97639.75;;;19.05;71.09
26865;BME280;40618;51.166;10.322;2023-06-22T05:30:06;97642.84;;;19.11;71.42
26865;BME280;40618;51.166;10.322;2023-06-22T05:32:32;97647.72;;;19.18;71.49
26865;BME280;40618;51.166;10.322;2023-06-22T05:34:58;97643.00;;;19.23;71.63
26865;BME280;40618;51.166;10.322;2023-06-22T05:37:24;97643.56;;;19.28;71.45
26865;BME280;40618;51.166;10.322;2023-06-22T05:39:51;97652.94;;;19.32;71.46
26865;BME280;40618;51.166;10.322;2023-06-22T05:42:16;97650.97;;;19.36;71.49
26865;BME280;40618;51.166;10.322;2023-06-22T05:44:42;97655.19;;;19.38;71.57
26865;BME280;40618;51.166;10.322;2023-06-22T05:47:08;97655.84;;;19.42;71.61
26865;BME280;40618;51.166;10.322;2023-06-22T05:49:33;97652.47;;;19.40;71.45
26865;BME280;40618;51.166;10.322;2023-06-22T05:52:01;97656.22;;;19.36;71.27
26865;BME280;40618;51.166;10.322;2023-06-22T05:54:28;97660.09;;;19.30;71.51
26865;BME280;40618;51.166;10.322;2023-06-22T05:56:54;97662.72;;;19.30;71.48
26865;BME280;40618;51.166;10.322;2023-06-22T05:59:19;97661.66;;;19.33;71.40
26865;BME280;40618;51.166;10.322;2023-06-22T06:01:45;97668.59;;;19.34;71.59
26865;BME280;40618;51.166;10.322;2023-06-22T06:04:15;97661.47;;;19.36;71.61
26865;BME280;40618;51.166;10.322;2023-06-22T06:06:42;97662.31;;;19.36;71.64
26865;BME280;40618;51.166;10.322;2023-06-22T06:09:07;97670.84;;;19.40;71.66
26865;BME280;40618;51.166;10.322;2023-06-22T06:11:33;97665.31;;;19.44;71.78
26865;BME280;40618;51.166;10.322;2023-06-22T06:13:59;97669.31;;;19.50;71.75
26865;BME280;40618;51.166;10.322;2023-06-22T06:16:24;97672.50;;;19.55;71.60
26865;BME280;40618;51.166;10.322;2023-06-22T06:18:50;97669.56;;;19.60;71.73
26865;BME280;40618;51.166;10.322;2023-06-22T06:21:18;97663.75;;;19.69;71.75
26865;BME280;40618;51.166;10.322;2023-06-22T06:23:44;97660.63;;;19.77;71.86
26865;BME280;40618;51.166;10.322;2023-06-22T06:26:09;97666.47;;;19.82;71.85
26865;BME280;40618;51.166;10.322;2023-06-22T06:28:35;97661.66;;;19.89;71.83
26865;BME280;40618;51.166;10.322;2023-06-22T06:31:01;97658.63;;;19.95;71.75
26865;BME280;40618;51.166;10.322;2023-06-22T06:33:26;97652.22;;;19.99;71.76
26865;BME280;40618;51.166;10.322;2023-06-22T06:35:52;97658.03;;;20.04;71.75
26865;BME280;40618;51.166;10.322;2023-06-22T06:38:18;97651.75;;;20.07;71.67
26865;BME280;40618;51.166;10.322;2023-06-22T06:40:43;97650.78;;;20.08;71.74
26865;BME280;40618;51.166;10.322;2023-06-22T06:43:10;97655.84;;;20.11;71.77
26865;BME280;40618;51.166;10.322;2023-06-22T06:45:36;97651.31;;;20.13;71.53
26865;BME280;40618;51.166;10.322;2023-06-22T06:48:01;97656.41;;;20.16;71.73
26865;BME280;40618;51.166;10.322;2023-06-22T06:50:27;97651.13;;;20.16;71.57
26865;BME280;40618;51.166;10.322;2023-06-22T06:52:53;97652.69;;;20.19;71.66
26865;BME280;40618;51.166;10.322;2023-06-22T06:55:19;97647.38;;;20.20;71.68
26865;BME280;40618;51.166;10.322;2023-06-22T06:57:45;97648.84;;;20.24;71.81
26865;BME280;40618;51.166;10.322;2023-06-22T07:00:14;97651.06;;;20.31;71.72
26865;BME280;40618;51.166;10.322;2023-06-22T07:02:41;97648.63;;;20.40;72.08
26865;BME280;40618;51.166;10.322;2023-06-22T07:05:09;97642.88;;;20.48;71.69
26865;BME280;40618;51.166;10.322;2023-06-22T07:07:36;97642.56;;;20.53;71.74
26865;BME280;40618;51.166;10.322;2023-06-22T07:10:05;97634.03;;;20.62;71.82
26865;BME280;40618;51.166;10.322;2023-06-22T07:12:31;97631.66;;;20.72;71.52
26865;BME280;40618;51.166;10.322;2023-06-22T07:15:04;97632.81;;;20.81;71.69
26865;BME280;40618;51.166;10.322;2023-06-22T07:17:38;97627.13;;;20.87;71.68
26865;BME280;40618;51.166;10.322;2023-06-22T07:20:06;97634.59;;;20.93;71.61
26865;BME280;40618;51.166;10.322;2023-06-22T07:22:38;97638.25;;;21.03;71.60
26865;BME280;40618;51.166;10.322;2023-06-22T07:25:04;97634.16;;;21.12;71.50
26865;BME280;40618;51.166;10.322;2023-06-22T07:27:56;97639.72;;;21.20;71.31
26865;BME280;40618;51.166;10.322;2023-06-22T07:30:27;97633.06;;;21.27;71.44
26865;BME280;40618;51.166;10.322;2023-06-22T07:32:53;97639.06;;;21.29;71.33
26865;BME280;40618;51.166;10.322;2023-06-22T07:35:19;97636.22;;;21.33;71.29
26865;BME280;40618;51.166;10.322;2023-06-22T07:37:45;97636.00;;;21.36;71.23
26865;BME280;40618;51.166;10.322;2023-06-22T07:40:11;97637.34;;;21.41;71.21
26865;BME280;40618;51.166;10.322;2023-06-22T07:42:37;97647.13;;;21.52;71.10
26865;BME280;40618;51.166;10.322;2023-06-22T07:45:03;97640.38;;;21.61;71.26
26865;BME280;40618;51.166;10.322;2023-06-22T07:47:30;97638.00;;;21.69;71.19
26865;BME280;40618;51.166;10.322;2023-06-22T07:49:58;97641.28;;;21.73;71.01
26865;BME280;40618;51.166;10.322;2023-06-22T07:52:26;97641.91;;;21.76;70.83
26865;BME280;40618;51.166;10.322;2023-06-22T07:54:52;97640.00;;;21.78;70.86
26865;BME280;40618;51.166;10.322;2023-06-22T07:57:18;97636.41;;;21.79;70.57
26865;BME280;40618;51.166;10.322;2023-06-22T07:59:44;97647.78;;;21.80;70.63
26865;BME280;40618;51.166;10.322;2023-06-22T08:02:10;97649.16;;;21.86;70.82
26865;BME280;40618;51.166;10.322;2023-06-22T08:04:36;97651.31;;;21.92;70.51
26865;BME280;40618;51.166;10.322;2023-06-22T08:07:02;97646.44;;;21.98;70.48
26865;BME280;40618;51.166;10.322;2023-06-22T08:09:30;97651.03;;;22.08;70.72
26865;BME280;40618;51.166;10.322;2023-06-22T08:11:57;97639.69;;;22.19;70.55
26865;BME280;40618;51.166;10.322;2023-06-22T08:14:26;97631.94;;;22.28;70.52
26865;BME280;40618;51.166;10.322;2023-06-22T08:16:52;97626.94;;;22.37;70.19
26865;BME280;40618;51.166;10.322;2023-06-22T08:19:18;97613.06;;;22.46;70.40
26865;BME280;40618;51.166;10.322;2023-06-22T08:21:44;97612.34;;;22.55;70.42
26865;BME280;40618;51.166;10.322;2023-06-22T08:24:09;97615.47;;;22.72;70.21
26865;BME280;40618;51.166;10.322;2023-06-22T08:26:35;97616.94;;;22.87;70.27
26865;BME280;40618;51.166;10.322;2023-06-22T08:29:03;97622.97;;;23.01;70.25
26865;BME280;40618;51.166;10.322;2023-06-22T08:31:30;97617.44;;;23.15;69.97
26865;BME280;40618;51.166;10.322;2023-06-22T08:33:59;97615.53;;;23.28;69.82
26865;BME280;40618;51.166;10.322;2023-06-22T08:36:24;97617.44;;;23.38;69.57
26865;BME280;40618;51.166;10.322;2023-06-22T08:38:50;97615.50;;;23.51;69.37
26865;BME280;40618;51.166;10.322;2023-06-22T08:41:17;97621.81;;;23.60;69.47
26865;BME280;40618;51.166;10.322;2023-06-22T08:43:44;97617.44;;;23.70;69.44
26865;BME280;40618;51.166;10.322;2023-06-22T08:46:10;97612.97;;;23.82;69.23
26865;BME280;40618;51.166;10.322;2023-06-22T08:48:36;97611.53;;;23.89;68.98
26865;BME280;40618;51.166;10.322;2023-06-22T08:51:02;97610.78;;;23.98;68.95
26865;BME280;40618;51.166;10.322;2023-06-22T08:53:28;97606.28;;;24.10;68.79
26865;BME280;40618;51.166;10.322;2023-06-22T08:55:54;97609.53;;;24.14;68.45
26865;BME280;40618;51.166;10.322;2023-06-22T08:58:19;97598.09;;;24.13;68.30
26865;BME280;40618;51.166;10.322;2023-06-22T09:00:46;97606.63;;;24.17;68.12
26865;BME280;40618;51.166;10.322;2023-06-22T09:03:13;97609.28;;;24.17;67.95
26865;BME280;40618;51.166;10.322;2023-06-22T09:05:38;97602.81;;;24.10;67.97
26865;BME280;40618;51.166;10.322;2023-06-22T09:08:04;97595.91;;;24.19;68.10
26865;BME280;40618;51.166;10.322;2023-06-22T09:10:30;97602.81;;;24.31;68.11
26865;BME280;40618;51.166;10.322;2023-06-22T09:12:56;97600.81;;;24.44;67.92
26865;BME280;40618;51.166;10.322;2023-06-22T09:15:22;97593.63;;;24.56;67.73
26865;BME280;40618;51.166;10.322;2023-06-22T09:17:48;97581.78;;;24.60;67.73
26865;BME280;40618;51.166;10.322;2023-06-22T09:20:14;97579.25;;;24.70;67.75
26865;BME280;40618;51.166;10.322;2023-06-22T09:22:40;97587.50;;;24.77;67.57
26865;BME280;40618;51.166;10.322;2023-06-22T09:25:06;97579.38;;;24.69;67.33
26865;BME280;40618;51.166;10.322;2023-06-22T09:27:32;97572.72;;;24.74;67.58
26865;BME280;40618;51.166;10.322;2023-06-22T09:29:58;97562.63;;;24.89;67.23
26865;BME280;40618;51.166;10.322;2023-06-22T09:32:24;97561.53;;;25.02;67.34
26865;BME280;40618;51.166;10.322;2023-06-22T09:34:51;97552.91;;;25.19;67.31
26865;BME280;40618;51.166;10.322;2023-06-22T09:37:16;97562.22;;;25.34;66.99
26865;BME280;40618;51.166;10.322;2023-06-22T09:39:42;97555.09;;;25.45;66.99
26865;BME280;40618;51.166;10.322;2023-06-22T09:42:08;97552.59;;;25.53;66.78
26865;BME280;40618;51.166;10.322;2023-06-22T09:44:33;97543.66;;;25.64;66.72
26865;BME280;40618;51.166;10.322;2023-06-22T09:46:59;97547.84;;;25.66;66.22
26865;BME280;40618;51.166;10.322;2023-06-22T09:49:25;97551.75;;;25.62;66.20
26865;BME280;40618;51.166;10.322;2023-06-22T09:51:51;97552.34;;;25.56;65.80
26865;BME280;40618;51.166;10.322;2023-06-22T09:54:17;97553.03;;;25.58;65.87
26865;BME280;40618;51.166;10.322;2023-06-22T09:56:43;97555.00;;;25.56;65.61
26865;BME280;40618;51.166;10.322;2023-06-22T09:59:09;97546.59;;;25.51;65.43
26865;BME280;40618;51.166;10.322;2023-06-22T10:01:35;97548.53;;;25.49;65.25
26865;BME280;40618;51.166;10.322;2023-06-22T10:04:02;97539.91;;;25.47;65.03
26865;BME280;40618;51.166;10.322;2023-06-22T10:06:27;97542.97;;;25.52;65.01
26865;BME280;40618;51.166;10.322;2023-06-22T10:08:53;97538.22;;;25.65;64.91
26865;BME280;40618;51.166;10.322;2023-06-22T10:11:19;97530.84;;;25.79;65.06
26865;BME280;40618;51.166;10.322;2023-06-22T10:13:45;97547.00;;;25.95;64.34
26865;BME280;40618;51.166;10.322;2023-06-22T10:16:10;97530.69;;;26.00;64.33
26865;BME280;40618;51.166;10.322;2023-06-22T10:18:36;97518.97;;;26.12;64.45
26865;BME280;40618;51.166;10.322;2023-06-22T10:21:02;97539.31;;;26.31;64.47
26865;BME280;40618;51.166;10.322;2023-06-22T10:23:27;97523.63;;;26.48;64.24
26865;BME280;40618;51.166;10.322;2023-06-22T10:25:53;97535.31;;;26.55;63.75
26865;BME280;40618;51.166;10.322;2023-06-22T10:28:19;97536.66;;;26.69;63.73
26865;BME280;40618;51.166;10.322;2023-06-22T10:30:44;97528.53;;;26.80;63.62
26865;BME280;40618;51.166;10.322;2023-06-22T10:33:11;97534.09;;;26.87;63.44
26865;BME280;40618;51.166;10.322;2023-06-22T10:35:37;97532.41;;;26.96;63.15
26865;BME280;40618;51.166;10.322;2023-06-22T10:38:04;97535.66;;;27.08;62.74
26865;BME280;40618;51.166;10.322;2023-06-22T10:40:30;97534.78;;;27.17;62.62
26865;BME280;40618;51.166;10.322;2023-06-22T10:42:56;97520.13;;;27.13;62.13
26865;BME280;40618;51.166;10.322;2023-06-22T10:45:22;97519.63;;;27.27;62.72
26865;BME280;40618;51.166;10.322;2023-06-22T10:47:48;97524.28;;;27.43;62.27
26865;BME280;40618;51.166;10.322;2023-06-22T10:50:14;97518.75;;;27.55;61.80
26865;BME280;40618;51.166;10.322;2023-06-22T10:52:40;97507.50;;;27.61;61.89
26865;BME280;40618;51.166;10.322;2023-06-22T10:55:07;97503.94;;;27.70;61.84
26865;BME280;40618;51.166;10.322;2023-06-22T10:57:34;97504.00;;;27.78;61.71
26865;BME280;40618;51.166;10.322;2023-06-22T10:59:59;97497.44;;;27.91;61.60
26865;BME280;40618;51.166;10.322;2023-06-22T11:02:25;97492.56;;;28.04;61.25
26865;BME280;40618;51.166;10.322;2023-06-22T11:04:53;97490.56;;;28.06;60.62
26865;BME280;40618;51.166;10.322;2023-06-22T11:07:19;97487.78;;;28.08;60.76
26865;BME280;40618;51.166;10.322;2023-06-22T11:09:44;97487.00;;;28.15;60.72
26865;BME280;40618;51.166;10.322;2023-06-22T11:12:10;97489.50;;;28.17;60.51
26865;BME280;40618;51.166;10.322;2023-06-22T11:14:36;97480.69;;;28.16;59.93
26865;BME280;40618;51.166;10.322;2023-06-22T11:17:01;97489.03;;;28.22;60.15
26865;BME280;40618;51.166;10.322;2023-06-22T11:19:27;97480.25;;;28.29;60.00
26865;BME280;40618;51.166;10.322;2023-06-22T11:21:52;97479.25;;;28.30;59.84
26865;BME280;40618;51.166;10.322;2023-06-22T11:24:18;97485.13;;;28.34;59.88
26865;BME280;40618;51.166;10.322;2023-06-22T11:26:44;97481.81;;;28.40;59.33
26865;BME280;40618;51.166;10.322;2023-06-22T11:29:09;97476.31;;;28.42;59.48
26865;BME280;40618;51.166;10.322;2023-06-22T11:31:35;97473.69;;;28.50;59.54
26865;BME280;40618;51.166;10.322;2023-06-22T11:34:01;97473.34;;;28.45;58.88
26865;BME280;40618;51.166;10.322;2023-06-22T11:36:29;97461.69;;;28.46;59.08
26865;BME280;40618;51.166;10.322;2023-06-22T11:38:58;97451.41;;;28.51;58.62
26865;BME280;40618;51.166;10.322;2023-06-22T11:41:24;97452.75;;;28.55;58.64
26865;BME280;40618;51.166;10.322;2023-06-22T11:43:49;97445.78;;;28.62;58.41
26865;BME280;40618;51.166;10.322;2023-06-22T11:46:15;97447.16;;;28.66;58.56
26865;BME280;40618;51.166;10.322;2023-06-22T11:48:41;97442.78;;;28.57;57.82
26865;BME280;40618;51.166;10.322;2023-06-22T11:51:06;97442.00;;;28.65;58.25
26865;BME280;40618;51.166;10.322;2023-06-22T11:53:33;97439.22;;;28.75;58.16
26865;BME280;40618;51.166;10.322;2023-06-22T11:56:00;97422.75;;;28.87;57.85
26865;BME280;40618;51.166;10.322;2023-06-22T11:58:26;97426.59;;;29.01;57.38
26865;BME280;40618;51.166;10.322;2023-06-22T12:00:52;97401.63;;;29.11;56.98
26865;BME280;40618;51.166;10.322;2023-06-22T12:03:19;97393.13;;;29.15;56.99
26865;BME280;40618;51.166;10.322;2023-06-22T12:05:46;97396.13;;;29.20;56.51
26865;BME280;40618;51.166;10.322;2023-06-22T12:08:12;97390.63;;;29.22;56.64
26865;BME280;40618;51.166;10.322;2023-06-22T12:10:39;97394.66;;;29.34;56.41
26865;BME280;40618;51.166;10.322;2023-06-22T12:13:04;97377.16;;;29.40;56.01
26865;BME280;40618;51.166;10.322;2023-06-22T12:15:30;97372.16;;;29.45;56.10
26865;BME280;40618;51.166;10.322;2023-06-22T12:17:56;97361.16;;;29.48;55.77
26865;BME280;40618;51.166;10.322;2023-06-22T12:20:22;97355.16;;;29.46;55.34
26865;BME280;40618;51.166;10.322;2023-06-22T12:22:47;97362.50;;;29.28;55.47
26865;BME280;40618;51.166;10.322;2023-06-22T12:25:16;97347.53;;;29.27;55.44
26865;BME280;40618;51.166;10.322;2023-06-22T12:27:42;97346.34;;;29.37;55.16
26865;BME280;40618;51.166;10.322;2023-06-22T12:30:08;97350.00;;;29.53;55.31
26865;BME280;40618;51.166;10.322;2023-06-22T12:32:34;97345.97;;;29.65;54.99
26865;BME280;40618;51.166;10.322;2023-06-22T12:35:00;97341.97;;;29.69;54.84
26865;BME280;40618;51.166;10.322;2023-06-22T12:37:25;97341.94;;;29.78;54.64
26865;BME280;40618;51.166;10.322;2023-06-22T12:39:52;97330.59;;;29.76;54.58
26865;BME280;40618;51.166;10.322;2023-06-22T12:42:19;97337.94;;;29.74;54.41
26865;BME280;40618;51.166;10.322;2023-06-22T12:44:46;97330.56;;;29.84;54.32
26865;BME280;40618;51.166;10.322;2023-06-22T12:47:11;97335.59;;;29.79;54.12
26865;BME280;40618;51.166;10.322;2023-06-22T12:49:38;97340.63;;;29.65;54.06